createdAt,value
2017-09-11T00:00:21.848Z,0
2017-09-11T00:01:21.706Z,0
2017-09-11T00:02:21.367Z,0
2017-09-11T00:03:21.070Z,0
2017-09-11T00:04:21.526Z,0
2017-09-11T00:05:21.852Z,0
2017-09-11T00:06:21.450Z,0
2017-09-11T00:07:22.314Z,0
2017-09-11T00:08:21.495Z,0
2017-09-11T00:09:21.330Z,0
2017-09-11T00:10:21.973Z,0
2017-09-11T00:11:21.656Z,0
2017-09-11T00:12:22.007Z,0
2017-09-11T00:13:21.929Z,0
2017-09-11T00:14:21.295Z,0
2017-09-11T00:15:22.067Z,0
2017-09-11T00:16:22.090Z,0
2017-09-11T00:17:22.454Z,0
2017-09-11T00:18:22.211Z,0
2017-09-11T00:19:21.890Z,0
2017-09-11T00:20:22.214Z,0
2017-09-11T00:21:22.535Z,0
2017-09-11T00:22:21.790Z,0
2017-09-11T00:23:22.593Z,0
2017-09-11T00:24:21.956Z,0
2017-09-11T00:25:22.166Z,0
2017-09-11T00:26:22.388Z,0
2017-09-11T00:27:22.603Z,0
2017-09-11T00:28:22.068Z,0
2017-09-11T00:29:22.019Z,0
2017-09-11T00:30:22.623Z,0
2017-09-11T00:31:21.972Z,0
2017-09-11T00:32:21.993Z,0
2017-09-11T00:33:22.666Z,0
2017-09-11T00:34:22.774Z,0
2017-09-11T00:35:22.368Z,0
2017-09-11T00:36:22.396Z,0
2017-09-11T00:37:22.091Z,0
2017-09-11T00:38:22.849Z,0
2017-09-11T00:39:22.226Z,0
2017-09-11T00:40:22.256Z,0
2017-09-11T00:41:22.604Z,0
2017-09-11T00:42:22.524Z,0
2017-09-11T00:43:22.291Z,0
2017-09-11T00:44:22.880Z,0
2017-09-11T00:45:22.582Z,0
2017-09-11T00:46:22.281Z,0
2017-09-11T00:47:22.935Z,0
2017-09-11T00:48:22.321Z,0
2017-09-11T00:49:22.014Z,0
2017-09-11T00:50:22.355Z,0
2017-09-11T00:51:22.390Z,0
2017-09-11T00:52:22.719Z,0
2017-09-11T00:53:22.734Z,0
2017-09-11T00:54:22.763Z,0
2017-09-11T00:55:22.170Z,0
2017-09-11T00:56:22.809Z,0
2017-09-11T00:57:22.822Z,0
2017-09-11T00:58:22.848Z,0
2017-09-11T00:59:22.548Z,0
2017-09-11T01:00:22.556Z,0
2017-09-11T01:01:22.594Z,0
2017-09-11T01:02:22.607Z,0
2017-09-11T01:03:23.454Z,0
2017-09-11T01:04:22.959Z,0
2017-09-11T01:05:22.998Z,0
2017-09-11T01:06:23.007Z,0
2017-09-11T01:07:22.702Z,0
2017-09-11T01:08:23.049Z,0
2017-09-11T01:09:22.741Z,0
2017-09-11T01:10:23.408Z,0
2017-09-11T01:11:23.113Z,0
2017-09-11T01:12:23.133Z,0
2017-09-11T01:13:22.833Z,0
2017-09-11T01:14:22.871Z,0
2017-09-11T01:15:23.191Z,0
2017-09-11T01:16:23.534Z,0
2017-09-11T01:17:22.580Z,0
2017-09-11T01:18:23.569Z,0
2017-09-11T01:19:23.983Z,0
2017-09-11T01:20:23.609Z,0
2017-09-11T01:21:23.331Z,0
2017-09-11T01:22:23.753Z,0
2017-09-11T01:23:23.433Z,0
2017-09-11T01:24:23.437Z,0
2017-09-11T01:25:23.388Z,0
2017-09-11T01:26:23.408Z,0
2017-09-11T01:27:23.436Z,0
2017-09-11T01:28:23.448Z,0
2017-09-11T01:29:23.786Z,0
2017-09-11T01:30:22.848Z,0
2017-09-11T01:31:23.184Z,0
2017-09-11T01:32:23.855Z,0
2017-09-11T01:33:23.565Z,0
2017-09-11T01:34:23.245Z,0
2017-09-11T01:35:23.592Z,0
2017-09-11T01:36:23.611Z,0
2017-09-11T01:37:23.315Z,0
2017-09-11T01:38:24.060Z,0
2017-09-11T01:39:23.879Z,0
2017-09-11T01:40:23.408Z,0
2017-09-11T01:41:23.883Z,0
2017-09-11T01:42:24.054Z,0
2017-09-11T01:43:23.427Z,0
2017-09-11T01:44:24.106Z,0
2017-09-11T01:45:23.469Z,0
2017-09-11T01:46:23.490Z,0
2017-09-11T01:47:23.840Z,0
2017-09-11T01:48:23.523Z,0
2017-09-11T01:49:24.200Z,0
2017-09-11T01:50:23.240Z,0
2017-09-11T01:51:23.681Z,0
2017-09-11T01:52:23.519Z,0
2017-09-11T01:53:23.538Z,0
2017-09-11T01:54:24.166Z,0
2017-09-11T01:55:23.840Z,0
2017-09-11T01:56:23.861Z,0
2017-09-11T01:57:24.633Z,0
2017-09-11T01:58:24.050Z,0
2017-09-11T01:59:23.532Z,0
2017-09-11T02:00:23.977Z,0
2017-09-11T02:01:23.892Z,0
2017-09-11T02:02:24.130Z,0
2017-09-11T02:03:23.830Z,0
2017-09-11T02:04:24.501Z,0
2017-09-11T02:05:24.714Z,0
2017-09-11T02:06:23.892Z,0
2017-09-11T02:07:24.715Z,0
2017-09-11T02:08:24.250Z,0
2017-09-11T02:09:23.951Z,0
2017-09-11T02:10:23.972Z,0
2017-09-11T02:11:23.988Z,0
2017-09-11T02:12:24.009Z,0
2017-09-11T02:13:24.348Z,0
2017-09-11T02:14:24.371Z,0
2017-09-11T02:15:24.580Z,0
2017-09-11T02:16:24.730Z,0
2017-09-11T02:17:24.426Z,0
2017-09-11T02:18:24.443Z,0
2017-09-11T02:19:24.151Z,0
2017-09-11T02:20:24.486Z,0
2017-09-11T02:21:23.856Z,0
2017-09-11T02:22:24.219Z,0
2017-09-11T02:23:23.915Z,0
2017-09-11T02:24:24.600Z,0
2017-09-11T02:25:24.659Z,0
2017-09-11T02:26:24.769Z,0
2017-09-11T02:27:24.630Z,0
2017-09-11T02:28:25.023Z,0
2017-09-11T02:29:25.026Z,0
2017-09-11T02:30:25.026Z,0
2017-09-11T02:31:24.182Z,0
2017-09-11T02:32:25.054Z,0
2017-09-11T02:33:24.857Z,0
2017-09-11T02:34:24.859Z,0
2017-09-11T02:35:24.790Z,0
2017-09-11T02:36:24.814Z,0
2017-09-11T02:37:24.669Z,0
2017-09-11T02:38:24.547Z,0
2017-09-11T02:39:24.632Z,0
2017-09-11T02:40:24.979Z,0
2017-09-11T02:41:25.006Z,0
2017-09-11T02:42:24.771Z,0
2017-09-11T02:43:24.623Z,0
2017-09-11T02:44:24.643Z,0
2017-09-11T02:45:25.401Z,0
2017-09-11T02:46:25.489Z,0
2017-09-11T02:47:25.164Z,0
2017-09-11T02:48:25.488Z,0
2017-09-11T02:49:25.165Z,0
2017-09-11T02:50:25.299Z,0
2017-09-11T02:51:25.648Z,0
2017-09-11T02:52:25.324Z,0
2017-09-11T02:53:25.266Z,0
2017-09-11T02:54:24.518Z,0
2017-09-11T02:55:24.945Z,0
2017-09-11T02:56:25.279Z,0
2017-09-11T02:57:25.234Z,0
2017-09-11T02:58:25.570Z,0
2017-09-11T02:59:24.942Z,0
2017-09-11T03:00:24.960Z,0
2017-09-11T03:01:25.623Z,0
2017-09-11T03:02:25.653Z,0
2017-09-11T03:03:25.020Z,0
2017-09-11T03:04:25.711Z,0
2017-09-11T03:05:25.375Z,0
2017-09-11T03:06:25.404Z,0
2017-09-11T03:07:25.434Z,0
2017-09-11T03:08:25.250Z,0
2017-09-11T03:09:24.906Z,0
2017-09-11T03:10:24.917Z,0
2017-09-11T03:11:25.532Z,0
2017-09-11T03:12:26.050Z,0
2017-09-11T03:13:25.554Z,0
2017-09-11T03:14:25.883Z,0
2017-09-11T03:15:25.579Z,0
2017-09-11T03:16:25.600Z,0
2017-09-11T03:17:25.386Z,0
2017-09-11T03:18:25.458Z,0
2017-09-11T03:19:26.184Z,0
2017-09-11T03:20:25.098Z,0
2017-09-11T03:21:25.371Z,0
2017-09-11T03:22:25.391Z,0
2017-09-11T03:23:26.060Z,0
2017-09-11T03:24:25.752Z,0
2017-09-11T03:25:25.537Z,0
2017-09-11T03:26:25.473Z,0
2017-09-11T03:27:26.142Z,0
2017-09-11T03:28:26.154Z,0
2017-09-11T03:29:25.533Z,0
2017-09-11T03:30:25.882Z,0
2017-09-11T03:31:25.319Z,0
2017-09-11T03:32:25.917Z,0
2017-09-11T03:33:25.614Z,0
2017-09-11T03:34:26.277Z,0
2017-09-11T03:35:25.325Z,0
2017-09-11T03:36:26.343Z,0
2017-09-11T03:37:26.016Z,0
2017-09-11T03:38:25.707Z,0
2017-09-11T03:39:25.722Z,0
2017-09-11T03:40:26.403Z,0
2017-09-11T03:41:26.571Z,0
2017-09-11T03:42:26.139Z,0
2017-09-11T03:43:25.807Z,0
2017-09-11T03:44:26.150Z,0
2017-09-11T03:45:25.842Z,0
2017-09-11T03:46:25.873Z,0
2017-09-11T03:47:26.213Z,0
2017-09-11T03:48:25.910Z,0
2017-09-11T03:49:26.243Z,0
2017-09-11T03:50:26.052Z,0
2017-09-11T03:51:25.960Z,0
2017-09-11T03:52:26.305Z,0
2017-09-11T03:53:26.653Z,0
2017-09-11T03:54:26.668Z,0
2017-09-11T03:55:26.044Z,0
2017-09-11T03:56:26.713Z,0
2017-09-11T03:57:26.409Z,0
2017-09-11T03:58:26.097Z,0
2017-09-11T03:59:26.767Z,0
2017-09-11T04:00:26.465Z,0
2017-09-11T04:01:26.811Z,0
2017-09-11T04:02:26.496Z,0
2017-09-11T04:03:26.195Z,0
2017-09-11T04:04:26.542Z,0
2017-09-11T04:05:26.555Z,0
2017-09-11T04:06:26.592Z,0
2017-09-11T04:07:26.601Z,0
2017-09-11T04:08:26.946Z,0
2017-09-11T04:09:26.793Z,0
2017-09-11T04:10:26.655Z,0
2017-09-11T04:11:26.672Z,0
2017-09-11T04:12:26.697Z,0
2017-09-11T04:13:27.077Z,0
2017-09-11T04:14:26.740Z,0
2017-09-11T04:15:26.761Z,0
2017-09-11T04:16:27.098Z,0
2017-09-11T04:17:26.471Z,0
2017-09-11T04:18:27.141Z,0
2017-09-11T04:19:27.152Z,0
2017-09-11T04:20:26.530Z,0
2017-09-11T04:21:26.866Z,4
2017-09-11T04:22:26.888Z,4
2017-09-11T04:23:26.597Z,4
2017-09-11T04:24:26.817Z,0
2017-09-11T04:25:26.948Z,4
2017-09-11T04:26:26.970Z,4
2017-09-11T04:27:26.994Z,4
2017-09-11T04:28:27.339Z,8
2017-09-11T04:29:27.029Z,8
2017-09-11T04:30:27.045Z,8
2017-09-11T04:31:26.422Z,8
2017-09-11T04:32:26.762Z,12
2017-09-11T04:33:27.108Z,12
2017-09-11T04:34:27.134Z,12
2017-09-11T04:35:27.469Z,16
2017-09-11T04:36:27.164Z,16
2017-09-11T04:37:26.984Z,20
2017-09-11T04:38:26.876Z,24
2017-09-11T04:39:27.226Z,28
2017-09-11T04:40:26.920Z,32
2017-09-11T04:41:26.938Z,40
2017-09-11T04:42:27.594Z,44
2017-09-11T04:43:26.654Z,52
2017-09-11T04:44:27.654Z,60
2017-09-11T04:45:27.309Z,60
2017-09-11T04:46:27.029Z,64
2017-09-11T04:47:27.367Z,68
2017-09-11T04:48:27.073Z,76
2017-09-11T04:49:27.742Z,88
2017-09-11T04:50:26.786Z,92
2017-09-11T04:51:27.130Z,104
2017-09-11T04:52:27.474Z,112
2017-09-11T04:53:27.496Z,112
2017-09-11T04:54:27.643Z,120
2017-09-11T04:55:27.208Z,120
2017-09-11T04:56:27.325Z,124
2017-09-11T04:57:27.482Z,132
2017-09-11T04:58:27.712Z,132
2017-09-11T04:59:27.607Z,136
2017-09-11T05:00:27.640Z,144
2017-09-11T05:01:27.489Z,144
2017-09-11T05:02:27.701Z,148
2017-09-11T05:03:27.488Z,152
2017-09-11T05:04:27.486Z,156
2017-09-11T05:05:28.048Z,160
2017-09-11T05:06:27.756Z,168
2017-09-11T05:07:27.765Z,176
2017-09-11T05:08:27.904Z,184
2017-09-11T05:09:27.155Z,188
2017-09-11T05:10:27.492Z,196
2017-09-11T05:11:27.190Z,208
2017-09-11T05:12:27.850Z,220
2017-09-11T05:13:27.875Z,228
2017-09-11T05:14:27.896Z,236
2017-09-11T05:15:27.269Z,252
2017-09-11T05:16:27.621Z,264
2017-09-11T05:17:27.954Z,276
2017-09-11T05:18:27.648Z,284
2017-09-11T05:19:27.677Z,288
2017-09-11T05:20:28.019Z,284
2017-09-11T05:21:28.049Z,284
2017-09-11T05:22:27.401Z,284
2017-09-11T05:23:28.394Z,288
2017-09-11T05:24:28.404Z,288
2017-09-11T05:25:27.789Z,292
2017-09-11T05:26:28.475Z,292
2017-09-11T05:27:28.495Z,296
2017-09-11T05:28:27.864Z,292
2017-09-11T05:29:28.187Z,284
2017-09-11T05:30:28.209Z,272
2017-09-11T05:31:28.231Z,264
2017-09-11T05:32:28.244Z,260
2017-09-11T05:33:27.943Z,264
2017-09-11T05:34:27.953Z,264
2017-09-11T05:35:28.626Z,260
2017-09-11T05:36:28.643Z,252
2017-09-11T05:37:28.667Z,252
2017-09-11T05:38:28.386Z,256
2017-09-11T05:39:28.374Z,260
2017-09-11T05:40:28.396Z,268
2017-09-11T05:41:28.737Z,268
2017-09-11T05:42:28.757Z,276
2017-09-11T05:43:28.135Z,292
2017-09-11T05:44:28.479Z,316
2017-09-11T05:45:28.495Z,332
2017-09-11T05:46:28.519Z,336
2017-09-11T05:47:28.573Z,328
2017-09-11T05:48:28.551Z,308
2017-09-11T05:49:28.251Z,292
2017-09-11T05:50:28.264Z,280
2017-09-11T05:51:28.615Z,264
2017-09-11T05:52:28.631Z,264
2017-09-11T05:53:28.012Z,260
2017-09-11T05:54:28.019Z,264
2017-09-11T05:55:29.014Z,244
2017-09-11T05:56:28.389Z,224
2017-09-11T05:57:28.733Z,208
2017-09-11T05:58:28.417Z,192
2017-09-11T05:59:28.443Z,188
2017-09-11T06:00:28.463Z,188
2017-09-11T06:01:28.811Z,188
2017-09-11T06:02:28.818Z,184
2017-09-11T06:03:28.844Z,180
2017-09-11T06:04:29.190Z,172
2017-09-11T06:05:28.881Z,172
2017-09-11T06:06:28.908Z,168
2017-09-11T06:07:28.600Z,168
2017-09-11T06:08:28.641Z,164
2017-09-11T06:09:28.441Z,164
2017-09-11T06:10:28.980Z,164
2017-09-11T06:11:29.327Z,168
2017-09-11T06:12:29.020Z,168
2017-09-11T06:13:28.717Z,172
2017-09-11T06:14:28.410Z,176
2017-09-11T06:15:29.077Z,176
2017-09-11T06:16:29.425Z,172
2017-09-11T06:17:28.799Z,172
2017-09-11T06:18:28.805Z,168
2017-09-11T06:19:28.833Z,172
2017-09-11T06:20:29.506Z,176
2017-09-11T06:21:28.868Z,180
2017-09-11T06:22:28.891Z,188
2017-09-11T06:23:28.586Z,204
2017-09-11T06:24:29.571Z,220
2017-09-11T06:25:29.283Z,232
2017-09-11T06:26:29.290Z,244
2017-09-11T06:27:28.991Z,244
2017-09-11T06:28:29.648Z,252
2017-09-11T06:29:29.059Z,264
2017-09-11T06:30:29.717Z,284
2017-09-11T06:31:29.598Z,320
2017-09-11T06:32:29.411Z,356
2017-09-11T06:33:29.109Z,392
2017-09-11T06:34:29.446Z,420
2017-09-11T06:35:29.458Z,424
2017-09-11T06:36:29.809Z,428
2017-09-11T06:37:29.184Z,452
2017-09-11T06:38:29.195Z,484
2017-09-11T06:39:28.900Z,516
2017-09-11T06:40:29.561Z,544
2017-09-11T06:41:29.587Z,556
2017-09-11T06:42:29.942Z,576
2017-09-11T06:43:29.619Z,608
2017-09-11T06:44:29.648Z,636
2017-09-11T06:45:29.666Z,660
2017-09-11T06:46:30.010Z,660
2017-09-11T06:47:29.700Z,636
2017-09-11T06:48:29.713Z,604
2017-09-11T06:49:30.062Z,568
2017-09-11T06:50:30.079Z,540
2017-09-11T06:51:29.457Z,520
2017-09-11T06:52:29.806Z,504
2017-09-11T06:53:29.498Z,484
2017-09-11T06:54:29.513Z,484
2017-09-11T06:55:30.183Z,504
2017-09-11T06:56:30.194Z,536
2017-09-11T06:57:30.221Z,568
2017-09-11T06:58:29.791Z,616
2017-09-11T06:59:29.632Z,680
2017-09-11T07:00:30.275Z,744
2017-09-11T07:01:29.647Z,804
2017-09-11T07:02:29.345Z,848
2017-09-11T07:03:29.364Z,884
2017-09-11T07:04:30.038Z,896
2017-09-11T07:05:30.059Z,900
2017-09-11T07:06:29.424Z,892
2017-09-11T07:07:29.772Z,888
2017-09-11T07:08:30.108Z,892
2017-09-11T07:09:30.453Z,908
2017-09-11T07:10:29.823Z,932
2017-09-11T07:11:30.174Z,924
2017-09-11T07:12:30.226Z,920
2017-09-11T07:13:30.237Z,904
2017-09-11T07:14:29.583Z,864
2017-09-11T07:15:30.249Z,828
2017-09-11T07:16:29.618Z,788
2017-09-11T07:17:30.293Z,756
2017-09-11T07:18:30.312Z,740
2017-09-11T07:19:30.329Z,732
2017-09-11T07:20:30.351Z,724
2017-09-11T07:21:30.047Z,708
2017-09-11T07:22:30.076Z,696
2017-09-11T07:23:30.737Z,708
2017-09-11T07:24:30.429Z,724
2017-09-11T07:25:30.452Z,732
2017-09-11T07:26:30.145Z,720
2017-09-11T07:27:30.165Z,688
2017-09-11T07:28:29.860Z,712
2017-09-11T07:29:30.198Z,796
2017-09-11T07:30:30.227Z,912
2017-09-11T07:31:30.886Z,976
2017-09-11T07:32:30.259Z,996
2017-09-11T07:33:30.286Z,1016
2017-09-11T07:34:30.312Z,1036
2017-09-11T07:35:30.974Z,1104
2017-09-11T07:36:30.660Z,1184
2017-09-11T07:37:31.011Z,1264
2017-09-11T07:38:30.703Z,1328
2017-09-11T07:39:30.730Z,1364
2017-09-11T07:40:30.742Z,1380
2017-09-11T07:41:30.126Z,1368
2017-09-11T07:42:31.100Z,1324
2017-09-11T07:43:30.814Z,1260
2017-09-11T07:44:30.842Z,1208
2017-09-11T07:45:30.847Z,1200
2017-09-11T07:46:30.547Z,1264
2017-09-11T07:47:30.879Z,1352
2017-09-11T07:48:30.587Z,1404
2017-09-11T07:49:30.929Z,1432
2017-09-11T07:50:30.637Z,1432
2017-09-11T07:51:30.643Z,1444
2017-09-11T07:52:30.989Z,1468
2017-09-11T07:53:30.689Z,1532
2017-09-11T07:54:30.375Z,1588
2017-09-11T07:55:31.040Z,1592
2017-09-11T07:56:30.757Z,1536
2017-09-11T07:57:31.084Z,1472
2017-09-11T07:58:30.455Z,1444
2017-09-11T07:59:31.133Z,1436
2017-09-11T08:00:30.505Z,1476
2017-09-11T08:01:31.162Z,1496
2017-09-11T08:02:31.608Z,1520
2017-09-11T08:03:30.885Z,1536
2017-09-11T08:04:31.225Z,1548
2017-09-11T08:05:31.691Z,1532
2017-09-11T08:06:30.624Z,1516
2017-09-11T08:07:31.693Z,1516
2017-09-11T08:08:31.310Z,1516
2017-09-11T08:09:31.002Z,1520
2017-09-11T08:10:31.356Z,1548
2017-09-11T08:11:31.052Z,1592
2017-09-11T08:12:31.506Z,1608
2017-09-11T08:13:31.505Z,1620
2017-09-11T08:14:31.127Z,1608
2017-09-11T08:15:31.129Z,1560
2017-09-11T08:16:31.840Z,1464
2017-09-11T08:17:31.540Z,1388
2017-09-11T08:18:31.197Z,1340
2017-09-11T08:19:31.219Z,1336
2017-09-11T08:20:31.667Z,1392
2017-09-11T08:21:31.259Z,1412
2017-09-11T08:22:31.283Z,1396
2017-09-11T08:23:31.296Z,1340
2017-09-11T08:24:31.973Z,1256
2017-09-11T08:25:31.699Z,1212
2017-09-11T08:26:31.368Z,1236
2017-09-11T08:27:31.707Z,1296
2017-09-11T08:28:31.517Z,1332
2017-09-11T08:29:31.516Z,1324
2017-09-11T08:30:31.449Z,1236
2017-09-11T08:31:31.143Z,1192
2017-09-11T08:32:31.475Z,1240
2017-09-11T08:33:32.148Z,1372
2017-09-11T08:34:32.164Z,1492
2017-09-11T08:35:31.872Z,1560
2017-09-11T08:36:31.567Z,1616
2017-09-11T08:37:31.599Z,1656
2017-09-11T08:38:32.163Z,1740
2017-09-11T08:39:32.291Z,1804
2017-09-11T08:40:31.980Z,1848
2017-09-11T08:41:31.669Z,1856
2017-09-11T08:42:32.338Z,1820
2017-09-11T08:43:31.721Z,1840
2017-09-11T08:44:31.749Z,1908
2017-09-11T08:45:31.752Z,1964
2017-09-11T08:46:31.780Z,2040
2017-09-11T08:47:31.799Z,2080
2017-09-11T08:48:31.505Z,2076
2017-09-11T08:49:32.581Z,2036
2017-09-11T08:50:31.859Z,1984
2017-09-11T08:51:32.212Z,1980
2017-09-11T08:52:31.582Z,2004
2017-09-11T08:53:32.475Z,1948
2017-09-11T08:54:31.954Z,1780
2017-09-11T08:55:31.643Z,1636
2017-09-11T08:56:32.316Z,1640
2017-09-11T08:57:31.695Z,1760
2017-09-11T08:58:32.453Z,1944
2017-09-11T08:59:32.481Z,2104
2017-09-11T09:00:31.749Z,2184
2017-09-11T09:01:32.476Z,2196
2017-09-11T09:02:32.113Z,2212
2017-09-11T09:03:32.785Z,2192
2017-09-11T09:04:32.487Z,2192
2017-09-11T09:05:32.832Z,2164
2017-09-11T09:06:32.614Z,2192
2017-09-11T09:07:32.896Z,2268
2017-09-11T09:08:32.639Z,2300
2017-09-11T09:09:32.647Z,2316
2017-09-11T09:10:32.646Z,2416
2017-09-11T09:11:32.302Z,2404
2017-09-11T09:12:32.694Z,2300
2017-09-11T09:13:32.024Z,2204
2017-09-11T09:14:32.782Z,2260
2017-09-11T09:15:32.491Z,2340
2017-09-11T09:16:32.789Z,2448
2017-09-11T09:17:32.790Z,2504
2017-09-11T09:18:32.787Z,2512
2017-09-11T09:19:32.832Z,2512
2017-09-11T09:20:32.618Z,2484
2017-09-11T09:21:32.201Z,2540
2017-09-11T09:22:32.872Z,2568
2017-09-11T09:23:32.654Z,2584
2017-09-11T09:24:32.922Z,2540
2017-09-11T09:25:32.936Z,2500
2017-09-11T09:26:32.962Z,2476
2017-09-11T09:27:32.657Z,2524
2017-09-11T09:28:32.995Z,2556
2017-09-11T09:29:32.467Z,2460
2017-09-11T09:30:33.045Z,2296
2017-09-11T09:31:32.795Z,2036
2017-09-11T09:32:32.792Z,1808
2017-09-11T09:33:33.114Z,1772
2017-09-11T09:34:32.499Z,1776
2017-09-11T09:35:33.152Z,1612
2017-09-11T09:36:32.848Z,1576
2017-09-11T09:37:33.191Z,1548
2017-09-11T09:38:33.543Z,1448
2017-09-11T09:39:32.914Z,1468
2017-09-11T09:40:33.263Z,1488
2017-09-11T09:41:33.280Z,1524
2017-09-11T09:42:32.980Z,1576
2017-09-11T09:43:32.998Z,1636
2017-09-11T09:44:33.018Z,1640
2017-09-11T09:45:32.807Z,1700
2017-09-11T09:46:33.713Z,1788
2017-09-11T09:47:33.413Z,1908
2017-09-11T09:48:33.113Z,1888
2017-09-11T09:49:33.128Z,2148
2017-09-11T09:50:33.478Z,2316
2017-09-11T09:51:33.866Z,2416
2017-09-11T09:52:33.200Z,2428
2017-09-11T09:53:32.892Z,2440
2017-09-11T09:54:33.568Z,2564
2017-09-11T09:55:33.907Z,2636
2017-09-11T09:56:33.288Z,2664
2017-09-11T09:57:33.314Z,2700
2017-09-11T09:58:33.647Z,2708
2017-09-11T09:59:34.014Z,2796
2017-09-11T10:00:33.694Z,2896
2017-09-11T10:01:33.742Z,2848
2017-09-11T10:02:34.082Z,2796
2017-09-11T10:03:33.442Z,2924
2017-09-11T10:04:33.800Z,3088
2017-09-11T10:05:33.499Z,3108
2017-09-11T10:06:33.508Z,3072
2017-09-11T10:07:33.207Z,2980
2017-09-11T10:08:33.235Z,2992
2017-09-11T10:09:33.581Z,2976
2017-09-11T10:10:33.281Z,2820
2017-09-11T10:11:33.632Z,2600
2017-09-11T10:12:33.646Z,2692
2017-09-11T10:13:34.311Z,2764
2017-09-11T10:14:34.328Z,2496
2017-09-11T10:15:34.362Z,2148
2017-09-11T10:16:34.058Z,1912
2017-09-11T10:17:33.776Z,1536
2017-09-11T10:18:34.421Z,1324
2017-09-11T10:19:33.807Z,1292
2017-09-11T10:20:34.153Z,1344
2017-09-11T10:21:33.847Z,1352
2017-09-11T10:22:33.871Z,1408
2017-09-11T10:23:34.224Z,1436
2017-09-11T10:24:34.246Z,1376
2017-09-11T10:25:33.930Z,1336
2017-09-11T10:26:34.492Z,1396
2017-09-11T10:27:34.307Z,1292
2017-09-11T10:28:34.651Z,1144
2017-09-11T10:29:34.355Z,1056
2017-09-11T10:30:34.382Z,1156
2017-09-11T10:31:34.070Z,1260
2017-09-11T10:32:33.774Z,1400
2017-09-11T10:33:34.117Z,1468
2017-09-11T10:34:34.508Z,1484
2017-09-11T10:35:34.158Z,1412
2017-09-11T10:36:34.185Z,1400
2017-09-11T10:37:34.529Z,1500
2017-09-11T10:38:34.872Z,1540
2017-09-11T10:39:34.254Z,1512
2017-09-11T10:40:34.287Z,1700
2017-09-11T10:41:34.948Z,2012
2017-09-11T10:42:34.638Z,2076
2017-09-11T10:43:34.046Z,1932
2017-09-11T10:44:34.596Z,1656
2017-09-11T10:45:34.070Z,1520
2017-09-11T10:46:34.410Z,1484
2017-09-11T10:47:34.758Z,1488
2017-09-11T10:48:34.781Z,1352
2017-09-11T10:49:34.478Z,1336
2017-09-11T10:50:34.178Z,1364
2017-09-11T10:51:34.854Z,1368
2017-09-11T10:52:35.194Z,1360
2017-09-11T10:53:34.896Z,1476
2017-09-11T10:54:34.270Z,1504
2017-09-11T10:55:34.612Z,1616
2017-09-11T10:56:35.295Z,1580
2017-09-11T10:57:34.345Z,1372
2017-09-11T10:58:34.359Z,1116
2017-09-11T10:59:35.040Z,1016
2017-09-11T11:00:35.065Z,1140
2017-09-11T11:01:35.073Z,1164
2017-09-11T11:02:35.097Z,1056
2017-09-11T11:03:35.123Z,896
2017-09-11T11:04:34.822Z,876
2017-09-11T11:05:35.171Z,904
2017-09-11T11:06:35.079Z,940
2017-09-11T11:07:35.210Z,1000
2017-09-11T11:08:35.613Z,932
2017-09-11T11:09:34.937Z,952
2017-09-11T11:10:34.952Z,864
2017-09-11T11:11:35.400Z,696
2017-09-11T11:12:35.433Z,632
2017-09-11T11:13:35.463Z,676
2017-09-11T11:14:35.049Z,712
2017-09-11T11:15:35.074Z,720
2017-09-11T11:16:34.776Z,732
2017-09-11T11:17:35.456Z,772
2017-09-11T11:18:35.471Z,792
2017-09-11T11:19:35.595Z,788
2017-09-11T11:20:35.593Z,824
2017-09-11T11:21:35.210Z,852
2017-09-11T11:22:35.739Z,900
2017-09-11T11:23:35.738Z,1056
2017-09-11T11:24:35.276Z,1184
2017-09-11T11:25:35.749Z,1236
2017-09-11T11:26:35.727Z,1236
2017-09-11T11:27:36.114Z,1216
2017-09-11T11:28:35.919Z,1192
2017-09-11T11:29:35.878Z,1092
2017-09-11T11:30:35.925Z,1012
2017-09-11T11:31:36.132Z,1196
2017-09-11T11:32:35.920Z,1328
2017-09-11T11:33:35.602Z,1264
2017-09-11T11:34:35.824Z,1520
2017-09-11T11:35:35.744Z,1592
2017-09-11T11:36:35.750Z,1720
2017-09-11T11:37:35.751Z,1716
2017-09-11T11:38:35.682Z,1820
2017-09-11T11:39:36.065Z,2024
2017-09-11T11:40:35.748Z,2052
2017-09-11T11:41:35.748Z,1844
2017-09-11T11:42:36.073Z,1768
2017-09-11T11:43:35.715Z,1844
2017-09-11T11:44:35.726Z,1976
2017-09-11T11:45:35.752Z,2152
2017-09-11T11:46:36.098Z,2368
2017-09-11T11:47:35.651Z,2420
2017-09-11T11:48:36.201Z,2340
2017-09-11T11:49:36.165Z,2272
2017-09-11T11:50:36.184Z,2312
2017-09-11T11:51:36.200Z,2312
2017-09-11T11:52:36.563Z,2320
2017-09-11T11:53:36.581Z,2428
2017-09-11T11:54:36.595Z,2432
2017-09-11T11:55:36.622Z,2356
2017-09-11T11:56:36.646Z,2604
2017-09-11T11:57:35.720Z,2704
2017-09-11T11:58:36.045Z,2632
2017-09-11T11:59:36.059Z,2544
2017-09-11T12:00:36.110Z,2508
2017-09-11T12:01:36.117Z,2456
2017-09-11T12:02:36.136Z,2160
2017-09-11T12:03:36.158Z,1976
2017-09-11T12:04:35.865Z,2156
2017-09-11T12:05:36.209Z,2356
2017-09-11T12:06:36.543Z,2344
2017-09-11T12:07:36.579Z,2656
2017-09-11T12:08:36.399Z,3072
2017-09-11T12:09:36.008Z,3048
2017-09-11T12:10:36.653Z,2828
2017-09-11T12:11:36.663Z,2500
2017-09-11T12:12:36.042Z,2628
2017-09-11T12:13:36.709Z,3048
2017-09-11T12:14:36.414Z,3020
2017-09-11T12:15:36.753Z,2916
2017-09-11T12:16:36.132Z,2684
2017-09-11T12:17:36.803Z,2668
2017-09-11T12:18:36.498Z,2736
2017-09-11T12:19:36.197Z,2664
2017-09-11T12:20:36.879Z,2708
2017-09-11T12:21:36.889Z,2744
2017-09-11T12:22:36.266Z,2604
2017-09-11T12:23:37.259Z,2456
2017-09-11T12:24:37.285Z,2380
2017-09-11T12:25:36.671Z,2600
2017-09-11T12:26:37.015Z,2800
2017-09-11T12:27:36.705Z,2664
2017-09-11T12:28:37.051Z,2444
2017-09-11T12:29:37.419Z,1884
2017-09-11T12:30:36.457Z,1480
2017-09-11T12:31:36.796Z,1336
2017-09-11T12:32:37.148Z,1304
2017-09-11T12:33:37.495Z,1260
2017-09-11T12:34:36.876Z,1096
2017-09-11T12:35:36.899Z,1032
2017-09-11T12:36:37.564Z,1048
2017-09-11T12:37:37.598Z,1204
2017-09-11T12:38:36.959Z,1448
2017-09-11T12:39:36.993Z,1300
2017-09-11T12:40:36.685Z,1432
2017-09-11T12:41:36.710Z,1624
2017-09-11T12:42:37.404Z,1968
2017-09-11T12:43:37.516Z,2272
2017-09-11T12:44:36.787Z,2428
2017-09-11T12:45:37.127Z,2580
2017-09-11T12:46:37.147Z,2720
2017-09-11T12:47:37.493Z,2868
2017-09-11T12:48:37.516Z,2736
2017-09-11T12:49:37.220Z,2796
2017-09-11T12:50:37.257Z,2844
2017-09-11T12:51:37.261Z,3052
2017-09-11T12:52:37.740Z,3276
2017-09-11T12:53:36.989Z,3040
2017-09-11T12:54:37.750Z,2312
2017-09-11T12:55:38.252Z,2024
2017-09-11T12:56:37.915Z,1868
2017-09-11T12:57:37.583Z,1632
2017-09-11T12:58:37.428Z,1468
2017-09-11T12:59:37.923Z,1308
2017-09-11T13:00:38.237Z,1156
2017-09-11T13:01:37.918Z,1020
2017-09-11T13:02:37.524Z,1008
2017-09-11T13:03:37.543Z,1032
2017-09-11T13:04:37.884Z,1016
2017-09-11T13:05:38.244Z,1068
2017-09-11T13:06:37.609Z,1180
2017-09-11T13:07:37.637Z,1136
2017-09-11T13:08:37.983Z,1152
2017-09-11T13:09:38.329Z,1064
2017-09-11T13:10:37.704Z,980
2017-09-11T13:11:38.049Z,900
2017-09-11T13:12:37.769Z,792
2017-09-11T13:13:38.103Z,740
2017-09-11T13:14:38.133Z,744
2017-09-11T13:15:37.826Z,756
2017-09-11T13:16:38.181Z,756
2017-09-11T13:17:37.884Z,812
2017-09-11T13:18:38.223Z,900
2017-09-11T13:19:37.914Z,980
2017-09-11T13:20:38.267Z,1072
2017-09-11T13:21:37.641Z,1172
2017-09-11T13:22:37.989Z,1412
2017-09-11T13:23:38.329Z,1824
2017-09-11T13:24:38.410Z,2172
2017-09-11T13:25:38.428Z,2372
2017-09-11T13:26:38.080Z,2400
2017-09-11T13:27:38.103Z,2336
2017-09-11T13:28:38.448Z,2224
2017-09-11T13:29:38.143Z,2368
2017-09-11T13:30:38.942Z,2776
2017-09-11T13:31:38.199Z,3352
2017-09-11T13:32:38.586Z,3324
2017-09-11T13:33:37.928Z,3124
2017-09-11T13:34:39.037Z,2868
2017-09-11T13:35:38.396Z,2744
2017-09-11T13:36:39.169Z,2752
2017-09-11T13:37:38.414Z,2860
2017-09-11T13:38:38.850Z,2688
2017-09-11T13:39:39.205Z,2200
2017-09-11T13:40:38.440Z,2172
2017-09-11T13:41:38.778Z,2428
2017-09-11T13:42:38.151Z,2696
2017-09-11T13:43:39.304Z,3308
2017-09-11T13:44:38.178Z,3740
2017-09-11T13:45:39.013Z,3136
2017-09-11T13:46:38.221Z,2656
2017-09-11T13:47:39.375Z,1980
2017-09-11T13:48:39.396Z,2088
2017-09-11T13:49:39.060Z,1940
2017-09-11T13:50:39.364Z,2104
2017-09-11T13:51:39.378Z,2176
2017-09-11T13:52:38.880Z,1876
2017-09-11T13:53:39.097Z,1912